Date,TemperatureHighF,TemperatureAvgF,TemperatureLowF,DewpointHighF,DewpointAvgF,DewpointLowF,HumidityHigh,HumidityAvg,HumidityLow,PressureMaxIn,PressureMinIn,WindSpeedMaxMPH,WindSpeedAvgMPH,GustSpeedMaxMPH,PrecipitationSumIn
2014-1-1,28.4,21.2,13.3,5.4,-0.4,-4.8,51,38,31,30.39,30.21,20,2,20,0.00
2014-1-2,20.7,16.0,5.0,8.7,4.3,-5.8,63,59,50,30.30,29.74,11,3,11,2.86
2014-1-3,12.9,5.3,-4.7,1.5,-5.5,-15.1,60,60,60,30.39,29.68,12,3,12,2.86
2014-1-4,24.8,9.0,-6.9,2.3,-7.6,-17.1,60,48,29,30.47,30.27,14,2,14,2.86
2014-1-5,41.2,25.5,9.5,39.6,12.6,-6.7,94,59,40,30.33,29.88,5,1,6,0.00
2014-1-6,56.8,41.6,23.4,56.3,37.4,9.4,98,86,45,29.88,29.38,13,2,20,0.96
2014-1-7,24.8,8.8,2.8,12.8,-0.9,-6.6,71,64,57,30.24,29.53,0,0,0,0.00
2014-1-8,17.6,9.0,0.9,3.9,-6.2,-11.7,64,51,35,30.47,30.24,0,0,0,0.00
2014-1-9,27.5,15.1,7.0,4.0,-3.3,-9.9,54,43,34,30.62,30.39,10,1,10,0.00
2014-1-10,33.4,25.4,9.3,29.8,16.5,-6.8,87,69,47,30.56,30.24,3,0,3,0.00
2014-1-11,58.6,48.0,33.1,58.1,46.8,29.6,98,96,87,30.24,29.35,26,3,26,0.49
2014-1-12,52.2,40.2,30.2,51.6,23.9,13.7,98,54,38,30.00,29.35,10,3,17,0.00
2014-1-13,47.3,36.6,25.5,34.9,23.1,14.5,74,59,37,30.15,29.91,12,2,12,0.00
2014-1-14,45.1,43.0,37.2,43.3,39.7,33.7,98,89,66,29.91,29.65,6,1,9,0.75
2014-1-15,45.1,34.6,27.5,40.1,30.0,26.1,98,84,56,30.03,29.79,7,1,7,0.71
2014-1-16,39.7,36.3,32.5,37.1,33.2,29.0,96,89,80,29.94,29.85,115,0,115,5.06
2014-1-17,41.2,33.3,28.4,32.3,22.6,12.6,93,68,32,30.00,29.91,11,1,11,0.71
2014-1-18,35.8,32.5,27.7,32.3,27.6,21.1,89,82,72,29.91,29.62,8,1,8,0.04
2014-1-19,33.1,28.5,25.7,21.1,14.0,9.1,76,56,41,29.79,29.59,13,3,13,0.05
2014-1-20,41.2,32.8,20.3,21.8,12.9,-1.2,66,44,37,29.88,29.53,11,3,11,0.00
2014-1-21,20.3,14.1,7.7,-1.0,-5.2,-8.3,47,41,33,30.03,29.82,14,2,14,2.29
2014-1-22,14.9,6.9,1.8,-2.7,-11.4,-20.1,47,42,31,29.88,29.68,10,2,10,0.00
2014-1-23,17.2,7.2,-2.2,-6.9,-15.9,-23.7,35,33,28,30.21,29.88,10,2,10,0.00
2014-1-24,15.3,7.2,1.2,-8.2,-15.9,-21.8,34,33,31,30.30,30.06,11,2,11,0.00
2014-1-25,33.8,20.4,6.6,15.5,2.2,-15.9,73,46,34,30.06,29.38,22,3,22,0.00
2014-1-26,20.7,16.1,9.1,10.8,-2.5,-8.1,72,44,30,29.85,29.41,12,2,12,0.00
2014-1-27,41.2,25.9,15.8,30.6,7.7,-13.0,77,47,26,30.00,29.59,12,2,12,0.08
2014-1-28,17.6,12.8,6.6,-10.8,-14.8,-20.2,29,27,26,30.30,30.00,12,2,12,0.00
2014-1-29,22.8,14.8,9.3,-1.5,-12.4,-17.9,49,28,25,30.21,29.97,8,1,8,0.00
2014-1-30,27.5,15.9,5.5,-1.0,-9.6,-21.2,47,31,26,30.41,30.18,7,1,11,0.00
2014-1-31,39.4,28.5,14.5,17.2,6.6,-1.6,74,40,29,30.21,30.03,6,2,9,0.00
2014-2-1,43.7,33.6,25.3,22.6,13.0,0.0,68,43,30,30.33,30.03,12,1,229,0.04
2014-2-2,50.2,39.4,32.0,38.1,28.6,20.1,90,67,38,30.09,29.88,6,1,6,0.00
2014-2-3,35.1,30.3,19.2,23.5,20.4,13.5,79,67,55,30.27,30.06,6,1,6,2.57
2014-2-4,35.2,23.9,13.8,19.5,12.5,8.0,79,63,40,30.44,30.24,6,1,6,0.12
2014-2-5,32.0,26.4,23.5,25.4,19.7,0.0,81,75,67,30.30,29.62,11,2,11,0.00
2014-2-6,28.2,19.5,10.8,17.1,4.6,-4.0,77,53,33,30.27,29.91,6,1,6,0.00
2014-2-7,29.1,14.8,2.8,3.5,-3.1,-10.8,52,45,32,30.24,30.15,11,1,11,0.00
2014-2-8,31.1,15.8,2.8,1.8,-5.0,-12.4,48,40,25,30.30,30.09,8,1,8,0.00
2014-2-9,32.4,22.6,10.8,10.9,0.4,-10.4,63,38,31,30.15,29.91,8,1,8,0.00
2014-2-10,27.3,18.2,8.6,11.6,-0.3,-12.9,73,46,31,30.21,29.91,6,2,12,0.00
2014-2-11,23.0,12.4,4.5,-1.4,-9.9,-16.6,48,35,32,30.41,30.21,10,2,10,0.00
2014-2-12,28.6,13.8,-1.3,3.8,-10.0,-22.3,48,33,23,30.56,30.33,6,1,6,0.00
2014-2-13,33.1,27.4,20.5,31.3,20.4,3.5,98,75,47,30.33,29.06,16,3,229,0.00
2014-2-14,36.9,30.8,26.2,30.7,20.4,12.1,92,67,44,29.76,28.94,4,0,4,0.00
2014-2-15,27.7,5.4,0.0,12.4,2.4,0.0,52,10,52,29.85,29.53,0,0,0,0.00
2014-2-16,62.1,15.2,0.0,34.7,0.1,-4.5,44,22,22,30.00,29.53,1,0,1,0.00
2014-2-17,28.0,15.0,5.0,-2.4,-9.5,-20.3,43,33,23,30.36,30.00,10,0,10,0.00
2014-2-18,34.0,20.0,4.8,25.2,4.6,-20.5,76,53,29,30.33,29.91,10,1,10,0.00
2014-2-19,36.3,27.1,12.6,31.6,20.5,5.9,92,77,53,30.12,29.71,11,1,11,0.00
2014-2-20,46.4,36.3,28.8,32.9,21.4,13.4,95,59,28,30.21,29.88,11,1,11,0.00
2014-2-21,126.3,35.6,31.3,39.9,33.4,27.3,97,92,79,30.12,29.71,8,1,8,2.69
2014-2-22,48.6,37.6,27.0,34.3,20.3,12.3,98,57,26,30.03,29.85,16,2,16,0.00
2014-2-23,50.5,40.8,29.7,22.8,16.6,11.8,54,38,27,30.00,29.79,4,1,115,0.00
2014-2-24,40.3,29.2,19.4,19.0,4.9,-3.2,48,35,27,30.00,29.74,13,3,13,0.04
2014-2-25,30.2,20.6,13.3,4.8,-2.1,-7.6,41,36,31,30.03,29.85,13,2,13,2.73
2014-2-26,30.4,16.6,5.0,3.3,-7.2,-21.7,47,34,25,29.97,29.76,10,1,10,0.00
2014-2-27,30.6,14.9,2.5,9.6,-8.9,-23.9,55,34,27,29.94,29.59,11,2,11,0.00
2014-2-28,22.3,10.6,3.6,-3.3,-13.0,-25.0,46,34,22,30.41,29.94,9,2,11,0.00
2014-3-1,35.8,19.4,1.2,9.4,-6.4,-27.1,44,31,24,30.44,30.09,11,2,11,0.00
2014-3-2,39.4,31.6,25.9,14.6,8.3,1.4,44,37,32,30.12,29.97,6,2,6,0.00
2014-3-3,26.1,17.1,5.9,1.4,-8.2,-19.5,34,31,27,30.30,29.97,8,2,8,0.00
2014-3-4,34.2,16.4,0.1,0.0,-10.2,-24.6,36,29,23,30.36,30.21,7,1,7,0.00
2014-3-5,33.8,25.5,16.9,9.2,3.0,-1.4,54,38,30,30.44,30.21,9,1,9,0.00
2014-3-6,30.9,16.7,6.3,-0.9,-9.2,-20.2,45,32,20,30.59,30.44,6,2,7,0.00
2014-3-7,39.2,23.5,4.8,10.8,-2.6,-24.0,46,32,24,30.47,29.91,8,1,8,0.00
2014-3-8,52.3,37.7,24.1,21.2,14.4,7.3,56,39,26,29.94,29.74,11,2,11,0.05
2014-3-9,38.1,31.9,27.0,16.4,6.6,-2.0,55,35,25,29.97,29.85,12,2,12,0.00
2014-3-10,44.6,35.0,27.3,20.3,12.5,0.7,54,39,31,29.91,29.59,8,1,8,0.00
2014-3-11,56.7,41.8,28.9,30.4,19.9,11.7,76,44,23,29.74,29.53,15,1,15,0.00
2014-3-12,54.0,43.2,33.8,46.3,29.2,16.1,98,62,32,29.74,29.06,10,2,12,0.00
2014-3-13,33.8,17.7,11.7,32.3,-0.4,-9.6,94,46,33,30.00,29.12,18,4,18,0.00
2014-3-14,38.8,25.8,10.9,17.3,2.7,-10.2,100,37,27,30.21,29.88,15,3,15,0.00
2014-3-15,53.4,40.3,31.8,38.7,21.9,12.4,87,50,27,29.94,29.74,13,2,13,0.54
2014-3-16,31.8,26.4,20.3,12.4,-0.6,-8.2,44,31,23,30.21,29.94,14,3,14,0.00
2014-3-17,31.6,22.3,15.4,-1.9,-6.9,-13.0,37,27,23,30.15,30.03,9,2,9,0.00
2014-3-18,41.9,26.3,12.9,5.5,-1.4,-7.9,44,31,21,30.33,30.12,9,1,9,0.00
2014-3-19,47.7,33.3,19.2,28.4,11.2,3.2,81,42,19,30.39,29.85,115,2,115,0.33
2014-3-20,51.6,39.8,33.8,35.8,25.7,13.9,89,61,28,29.88,29.68,12,2,12,0.24
2014-3-21,41.4,34.8,23.9,14.3,10.9,6.3,47,37,29,30.06,29.79,15,3,15,0.00
2014-3-22,55.2,37.0,21.9,28.1,15.1,6.4,58,42,26,30.06,29.71,15,2,15,0.00
2014-3-23,38.7,31.9,20.8,16.6,6.5,-3.7,50,35,24,30.06,29.91,10,2,11,0.00
2014-3-24,31.3,22.0,12.9,-2.2,-7.3,-13.3,34,27,23,30.18,30.03,11,2,11,0.00
2014-3-25,38.5,26.1,11.3,6.2,-0.2,-11.0,47,32,24,30.15,29.82,11,1,11,0.00
2014-3-26,35.2,28.3,19.6,7.6,0.4,-13.1,43,30,22,30.09,29.68,20,4,20,0.00
2014-3-27,43.5,28.8,15.4,12.0,-0.6,-13.1,42,28,20,30.36,30.09,12,3,12,0.00
2014-3-28,52.3,41.3,29.7,46.0,29.1,9.6,95,65,41,30.27,29.97,13,2,13,0.25
2014-3-29,52.7,43.7,34.7,45.4,37.0,28.9,97,80,41,30.24,29.85,13,2,13,0.92
2014-3-30,43.2,39.8,35.4,42.5,37.8,32.4,98,93,79,30.24,29.59,12,3,12,1.28
2014-3-31,42.3,36.1,32.5,35.3,26.0,17.8,98,70,45,30.03,29.68,10,2,10,3.98
2014-4-1,54.3,40.9,29.5,24.9,19.7,16.5,62,44,28,30.12,30.03,10,2,10,0.00
2014-4-2,55.6,41.5,28.6,30.6,22.7,16.8,77,50,29,30.12,30.03,9,1,9,0.00
2014-4-3,57.0,43.4,31.1,27.6,18.2,10.5,78,41,20,30.15,30.03,8,2,8,6.71
2014-4-4,55.0,41.8,34.7,32.0,19.2,14.6,86,42,26,30.15,29.79,11,2,13,0.13
2014-4-5,52.3,40.8,33.6,37.2,24.3,10.2,89,57,27,30.03,29.74,13,2,13,0.08
2014-4-6,56.3,40.9,29.1,14.7,11.4,6.4,48,31,17,30.21,29.97,9,2,9,0.00
2014-4-7,59.4,44.7,30.2,44.5,18.3,7.3,95,40,17,30.24,29.76,13,2,13,0.08
2014-4-8,64.6,52.2,41.2,58.3,40.0,20.5,98,69,32,29.76,29.38,14,3,14,0.46
2014-4-9,57.9,44.9,32.4,33.7,17.4,1.0,78,37,18,30.03,29.56,13,2,13,0.00
2014-4-10,58.5,44.6,28.2,23.8,13.0,2.4,42,29,19,30.21,30.00,14,3,14,7.46
2014-4-11,68.4,54.8,45.3,45.3,31.5,0.0,100,44,23,30.06,29.97,10,2,10,0.08
2014-4-12,67.8,53.2,38.7,44.3,27.6,15.3,88,45,17,30.27,30.00,11,1,11,0.00
2014-4-13,73.0,56.2,39.7,45.3,31.1,19.4,62,39,23,30.24,30.03,14,3,14,0.00
2014-4-14,73.2,63.4,53.6,53.2,43.6,36.0,84,51,28,30.06,29.91,28,5,28,0.00
2014-4-15,61.0,55.0,32.5,59.9,52.2,29.1,100,90,68,29.91,29.59,24,6,24,8.62
2014-4-16,42.8,33.4,27.3,35.8,11.0,3.3,100,43,23,30.59,29.82,13,2,13,0.33
2014-4-17,79.9,35.9,25.3,79.9,11.3,5.6,100,37,24,30.77,30.56,10,2,10,8.95
2014-4-18,51.3,38.5,24.6,25.6,18.0,13.5,74,45,27,30.59,30.21,7,1,10,8.95
2014-4-19,62.8,47.1,32.0,32.3,20.2,10.7,74,38,18,30.41,30.21,13,2,15,8.95
2014-4-20,61.5,44.8,29.3,21.0,14.1,10.1,55,31,16,30.50,30.33,10,2,10,0.18
2014-4-21,69.8,49.3,28.6,23.1,16.8,11.4,56,31,14,30.33,29.88,10,2,10,11.12
2014-4-22,73.8,56.4,38.5,38.6,31.4,23.0,70,42,19,29.88,29.53,17,2,17,11.12
2014-4-23,56.5,56.5,56.5,38.6,38.6,38.6,51,51,51,29.74,29.50,12,2,12,0.00
2014-4-24,56.5,56.5,56.5,38.6,38.6,38.6,51,51,51,30.00,29.71,26,3,26,0.34
2014-4-25,56.5,56.5,56.5,38.6,38.6,38.6,51,51,51,30.09,29.85,10,2,10,0.00
2014-4-26,56.5,56.5,56.5,38.6,38.6,38.6,51,51,51,29.88,29.76,115,1,115,0.42
2014-4-27,56.5,51.4,39.7,38.6,30.3,22.5,54,44,34,30.12,29.85,10,2,10,0.04
2014-4-28,63.5,49.3,33.1,30.6,25.0,22.1,76,41,24,30.24,30.03,11,2,11,0.00
2014-4-29,50.2,43.2,38.8,33.2,26.9,21.5,72,54,34,30.47,30.21,13,3,13,0.00
2014-4-30,45.5,41.5,37.4,45.0,36.1,28.7,98,82,67,30.47,30.09,13,2,13,0.00
2014-5-1,68.9,57.8,45.5,60.4,51.5,45.0,98,82,46,30.09,29.71,9,2,9,11.92
2014-5-2,67.6,56.5,44.4,46.5,29.3,22.3,71,39,20,29.85,29.74,11,2,11,11.92
2014-5-3,45.9,41.8,39.2,30.0,28.1,26.1,68,58,47,29.88,29.85,2,0,2,0.00
2014-5-4,60.6,51.1,39.7,34.1,26.2,22.3,71,38,24,29.88,29.62,14,3,14,14.03
2014-5-5,63.3,53.1,44.1,33.0,27.9,21.9,61,40,25,29.91,29.74,11,2,11,0.00
2014-5-6,65.1,51.5,38.8,36.4,23.7,17.4,68,37,18,30.12,29.88,12,2,12,0.00
2014-5-7,68.9,52.3,34.7,25.8,19.4,15.3,51,29,17,30.24,30.09,11,1,11,0.00
2014-5-8,59.9,52.7,40.6,50.0,38.3,19.9,81,60,35,30.24,30.12,6,1,6,0.04
2014-5-9,57.9,56.1,53.8,56.0,53.1,48.8,94,90,81,30.24,30.06,10,2,10,0.05
2014-5-10,82.4,65.6,57.7,65.6,55.4,40.0,98,75,24,30.06,29.82,14,2,14,0.29
2014-5-11,78.6,65.5,52.9,59.3,30.7,15.8,93,34,13,30.09,29.85,12,2,12,0.00
2014-5-12,86.7,68.7,49.1,46.6,32.1,20.9,59,29,13,30.15,30.03,115,2,115,0.00
2014-5-13,70.3,58.7,46.6,50.7,29.4,24.7,68,34,22,30.33,30.06,14,2,14,0.00
2014-5-14,76.1,60.2,44.1,47.1,34.2,26.1,59,40,20,30.33,30.27,10,2,10,14.41
2014-5-15,76.3,65.5,58.6,61.6,53.9,39.0,97,68,41,30.30,30.18,12,3,12,14.53
2014-5-16,64.8,63.3,60.8,64.2,62.2,59.8,98,96,91,30.18,29.91,17,3,17,0.17
2014-5-17,72.0,61.7,0.0,64.5,41.2,0.0,98,54,21,30.12,29.82,15,2,15,1.16
2014-5-18,68.7,56.8,44.8,34.8,26.7,19.6,61,34,18,30.18,30.06,8,1,8,1.16
2014-5-19,68.9,56.1,40.1,30.4,24.1,18.3,57,32,17,30.18,30.06,9,1,9,15.86
2014-5-20,76.3,61.4,46.9,38.1,26.8,18.5,54,30,15,30.09,29.97,11,1,11,1.16
2014-5-21,80.1,62.6,45.3,45.9,31.1,24.4,70,35,15,30.03,29.91,9,1,9,1.16
2014-5-22,63.9,57.1,52.7,53.2,48.8,36.9,91,75,49,29.97,29.85,6,1,6,0.00
2014-5-23,68.4,59.1,51.8,56.6,50.5,42.8,94,75,41,30.00,29.85,6,1,6,0.00
2014-5-24,68.9,58.3,50.7,51.5,43.1,35.5,92,62,31,30.09,29.94,6,1,6,0.00
2014-5-25,79.5,62.2,49.3,59.2,42.0,30.9,93,54,20,30.12,30.03,8,1,8,0.95
2014-5-26,86.0,65.2,49.3,61.2,46.0,37.2,89,56,19,30.06,29.85,8,0,8,0.00
2014-5-27,84.2,66.9,50.2,54.9,45.6,39.0,84,51,22,29.91,29.79,11,1,11,0.00
2014-5-28,54.7,50.2,44.4,45.2,40.2,34.6,84,69,51,30.21,29.88,9,2,9,0.00
2014-5-29,72.5,55.6,37.8,48.1,32.7,27.8,87,48,22,30.24,30.12,7,1,7,0.00
2014-5-30,75.6,58.5,42.4,49.2,39.4,30.8,85,56,21,30.18,30.00,6,1,6,0.00
2014-5-31,68.9,57.6,44.1,53.9,39.8,29.1,95,56,28,30.30,30.06,9,1,9,0.21
2014-6-1,79.0,61.0,42.1,49.5,33.2,26.6,86,42,17,30.36,30.24,57,1,57,0.00
2014-6-2,82.8,65.9,47.3,44.3,36.5,31.4,62,37,19,30.27,30.03,8,1,8,0.00
2014-6-3,88.5,69.1,52.2,55.8,45.7,41.4,80,47,21,30.06,29.85,11,1,11,0.00
2014-6-4,78.3,65.5,57.7,60.0,52.7,46.8,88,66,34,29.91,29.76,5,1,5,0.08
2014-6-5,68.0,61.3,54.0,59.8,55.7,49.1,92,82,56,29.79,29.68,5,0,238,0.21
2014-6-6,74.7,64.0,55.4,51.5,43.7,36.1,85,51,25,29.94,29.74,8,1,8,0.00
2014-6-7,84.6,68.0,52.7,59.5,43.3,29.0,87,47,19,30.00,29.91,6,1,6,17.31
2014-6-8,86.5,71.4,54.7,60.8,43.1,33.9,87,43,16,30.00,29.85,7,1,7,0.00
2014-6-9,74.1,63.1,56.7,58.0,51.7,41.8,90,68,37,30.03,29.91,6,0,6,0.13
2014-6-10,83.8,68.8,60.4,65.4,57.7,50.2,93,71,35,30.09,29.94,9,1,9,0.03
2014-6-11,71.6,62.4,54.3,55.6,49.0,39.0,84,64,32,30.18,30.09,7,1,7,17.64
2014-6-12,66.4,61.7,54.1,61.8,55.4,45.0,90,80,70,30.15,30.00,6,1,6,0.00
2014-6-13,70.3,65.3,61.5,64.9,62.2,59.3,98,90,77,30.00,29.76,7,1,7,0.17
2014-6-14,77.9,65.3,52.5,65.7,51.1,34.3,97,65,28,29.97,29.79,7,1,7,17.81
2014-6-15,79.0,64.4,0.0,50.6,41.6,0.0,87,48,23,30.09,29.91,10,1,10,0.00
2014-6-16,81.7,67.2,50.0,54.2,39.1,27.0,82,42,14,30.18,30.03,115,1,115,0.00
2014-6-17,89.1,73.5,57.0,62.7,51.7,41.1,81,50,25,30.09,29.85,6,1,6,0.00
2014-6-18,84.6,74.6,65.5,66.7,52.2,43.7,87,49,25,30.00,29.76,12,1,12,0.00
2014-6-19,83.1,69.5,55.6,64.1,49.3,34.1,83,53,21,30.03,29.91,8,0,8,0.04
2014-6-20,78.4,63.6,48.7,52.1,35.6,27.9,80,40,18,30.03,29.88,6,1,6,0.00
2014-6-21,77.9,62.9,46.6,49.0,35.5,30.0,78,40,20,30.00,29.85,7,1,7,0.00
2014-6-22,79.3,64.9,49.5,51.4,39.2,32.3,77,45,20,30.06,29.91,6,1,6,17.85
2014-6-23,83.1,67.9,51.1,55.8,42.4,35.9,83,45,19,30.18,30.03,6,1,6,17.85